Terminal Aerodrome Forecast
Issued by NWS

Home | Current Version | Previous Version | Text Only | Print | Product List | Glossary Off
Versions: 1 2 3 4 5 6 7 8 9 10 11 12

165
FTUS42 KMHX 162320
TAFISO
TAF
KISO 162320Z 1700/1724 VRB04KT P6SM FEW150 SCT250
     FM171800 21008KT P6SM SKC
      AMD LTD TO CLD VIS AND WIND=

USA.gov is the U.S. government's official web portal to all federal, state and local government web resources and services.